createdAt,value
2019-03-20T00:01:19.164Z,63.10
2019-03-20T00:03:47.836Z,63.00
2019-03-20T00:06:16.590Z,66.00
2019-03-20T00:08:45.217Z,67.40
2019-03-20T00:11:14.021Z,71.20
2019-03-20T00:13:42.655Z,72.80
2019-03-20T00:16:11.439Z,74.30
2019-03-20T00:18:40.138Z,74.00
2019-03-20T00:21:08.947Z,74.10
2019-03-20T00:23:37.662Z,75.20
2019-03-20T00:26:06.482Z,77.90
2019-03-20T00:28:35.138Z,79.50
2019-03-20T00:31:03.912Z,80.00
2019-03-20T00:33:32.630Z,79.50
2019-03-20T00:36:01.304Z,80.60
2019-03-20T00:38:30.021Z,81.50
2019-03-20T00:40:58.684Z,82.70
2019-03-20T00:43:27.422Z,83.80
2019-03-20T00:45:56.124Z,85.50
2019-03-20T00:48:24.748Z,86.10
2019-03-20T00:50:53.395Z,86.90
2019-03-20T00:53:22.146Z,89.50
2019-03-20T00:55:50.881Z,90.40
2019-03-20T00:58:19.587Z,90.30
2019-03-20T01:00:48.255Z,90.50
2019-03-20T01:03:16.938Z,91.10
2019-03-20T01:05:45.712Z,91.30
2019-03-20T01:08:14.446Z,91.60
2019-03-20T01:10:43.509Z,92.10
2019-03-20T01:13:12.066Z,91.80
2019-03-20T01:15:40.768Z,91.50
2019-03-20T01:18:09.455Z,91.20
2019-03-20T01:20:38.304Z,91.50
2019-03-20T01:23:07.069Z,91.50
2019-03-20T01:25:35.841Z,91.60
2019-03-20T01:28:04.539Z,91.70
2019-03-20T01:30:34.948Z,91.80
2019-03-20T01:33:06.418Z,91.80
2019-03-20T01:35:35.293Z,91.90
2019-03-20T01:38:04.442Z,92.30
2019-03-20T01:40:33.251Z,92.60
2019-03-20T01:43:02.010Z,92.60
2019-03-20T01:45:30.784Z,92.90
2019-03-20T01:47:59.441Z,93.00
2019-03-20T01:50:28.151Z,93.10
2019-03-20T01:52:56.895Z,93.30
2019-03-20T01:55:25.696Z,93.80
2019-03-20T01:57:54.432Z,94.10
2019-03-20T02:00:23.227Z,94.20
2019-03-20T02:02:52.050Z,94.40
2019-03-20T02:05:20.706Z,94.40
2019-03-20T02:07:49.444Z,94.40
2019-03-20T02:10:18.652Z,94.50
2019-03-20T02:12:47.379Z,94.70
2019-03-20T02:15:18.350Z,94.90
2019-03-20T02:17:47.139Z,95.00
2019-03-20T02:20:17.087Z,95.10
2019-03-20T02:22:45.927Z,95.10
2019-03-20T02:25:15.434Z,94.90
2019-03-20T02:27:45.640Z,95.00
2019-03-20T02:30:17.957Z,95.20
2019-03-20T02:32:46.907Z,95.40
2019-03-20T02:35:15.663Z,95.50
2019-03-20T02:37:44.321Z,95.40
2019-03-20T02:40:14.222Z,95.50
2019-03-20T02:42:42.832Z,95.60
2019-03-20T02:45:14.467Z,95.50
2019-03-20T02:47:43.172Z,95.50
2019-03-20T02:50:13.311Z,95.40
2019-03-20T02:52:42.092Z,95.70
2019-03-20T02:55:11.931Z,95.60
2019-03-20T02:57:40.764Z,95.60
2019-03-20T03:00:12.279Z,95.60
2019-03-20T03:02:41.057Z,95.90
2019-03-20T03:05:10.388Z,95.90
2019-03-20T03:07:39.066Z,96.00
2019-03-20T03:10:10.405Z,95.80
2019-03-20T03:12:39.090Z,95.70
2019-03-20T03:15:09.879Z,96.10
2019-03-20T03:17:38.520Z,96.20
2019-03-20T03:20:09.366Z,96.30
2019-03-20T03:22:37.936Z,96.30
2019-03-20T03:25:09.288Z,96.30
2019-03-20T03:27:38.010Z,95.90
2019-03-20T03:30:27.405Z,96.20
2019-03-20T03:32:56.206Z,95.90
2019-03-20T03:35:24.850Z,95.80
2019-03-20T03:37:53.549Z,95.80
2019-03-20T03:40:22.336Z,95.90
2019-03-20T03:42:51.024Z,96.10
2019-03-20T03:45:19.816Z,96.20
2019-03-20T03:47:48.518Z,96.20
2019-03-20T03:50:17.260Z,96.20
2019-03-20T03:52:45.985Z,96.20
2019-03-20T03:55:15.483Z,96.40
2019-03-20T03:57:44.647Z,96.40
2019-03-20T04:00:15.832Z,96.30
2019-03-20T04:02:44.617Z,96.40
2019-03-20T04:05:13.725Z,96.50
2019-03-20T04:07:42.430Z,96.60
2019-03-20T04:10:13.065Z,96.80
2019-03-20T04:12:41.737Z,96.80
2019-03-20T04:15:13.459Z,96.90
2019-03-20T04:17:42.193Z,96.70
2019-03-20T04:20:13.645Z,96.80
2019-03-20T04:22:42.628Z,96.90
2019-03-20T04:25:12.769Z,96.90
2019-03-20T04:27:41.530Z,96.80
2019-03-20T04:30:13.185Z,96.60
2019-03-20T04:32:41.935Z,96.70
2019-03-20T04:35:10.917Z,96.60
2019-03-20T04:37:39.753Z,96.60
2019-03-20T04:40:11.244Z,96.50
2019-03-20T04:42:39.886Z,96.40
2019-03-20T04:45:12.655Z,96.20
2019-03-20T04:47:41.545Z,96.10
2019-03-20T04:50:11.695Z,96.00
2019-03-20T04:52:40.450Z,96.00
2019-03-20T04:55:09.697Z,96.30
2019-03-20T04:57:38.395Z,96.30
2019-03-20T05:00:10.235Z,96.50
2019-03-20T05:02:38.911Z,96.60
2019-03-20T05:05:08.086Z,96.60
2019-03-20T05:07:36.662Z,96.80
2019-03-20T05:10:08.215Z,96.80
2019-03-20T05:12:36.847Z,96.80
2019-03-20T05:15:08.034Z,96.80
2019-03-20T05:17:36.791Z,96.80
2019-03-20T05:20:08.588Z,96.80
2019-03-20T05:22:37.390Z,97.00
2019-03-20T05:25:06.958Z,97.00
2019-03-20T05:27:35.718Z,97.00
2019-03-20T05:30:06.992Z,97.00
2019-03-20T05:32:35.690Z,96.90
2019-03-20T05:35:05.467Z,96.90
2019-03-20T05:37:34.249Z,97.00
2019-03-20T05:40:04.042Z,97.20
2019-03-20T05:42:32.793Z,97.30
2019-03-20T05:45:01.438Z,97.30
2019-03-20T05:47:30.132Z,97.40
2019-03-20T05:49:58.805Z,97.50
2019-03-20T05:52:27.493Z,97.70
2019-03-20T05:54:56.074Z,97.90
2019-03-20T05:57:24.753Z,97.60
2019-03-20T05:59:53.339Z,97.70
2019-03-20T06:02:22.246Z,98.10
2019-03-20T06:04:50.894Z,98.60
2019-03-20T06:07:21.806Z,99.00
2019-03-20T06:09:49.949Z,99.20
2019-03-20T06:12:18.761Z,99.50
2019-03-20T06:14:48.212Z,99.40
2019-03-20T06:17:16.870Z,99.20
2019-03-20T06:19:45.482Z,98.00
2019-03-20T06:22:14.119Z,91.40
2019-03-20T06:24:42.813Z,71.70
2019-03-20T06:27:11.504Z,45.60
2019-03-20T06:29:40.135Z,36.30
2019-03-20T06:32:08.734Z,29.50
2019-03-20T06:34:37.495Z,27.30
2019-03-20T06:37:06.236Z,26.30
2019-03-20T06:39:34.940Z,22.80
2019-03-20T06:42:03.602Z,20.20
2019-03-20T06:44:32.246Z,19.00
2019-03-20T06:47:00.911Z,18.40
2019-03-20T06:49:29.503Z,16.30
2019-03-20T06:51:58.102Z,15.70
2019-03-20T06:54:26.768Z,13.80
2019-03-20T06:56:55.457Z,13.80
2019-03-20T06:59:26.983Z,12.50
2019-03-20T07:01:55.737Z,11.80
2019-03-20T07:04:27.249Z,13.90
2019-03-20T07:06:58.759Z,12.10
2019-03-20T07:09:31.630Z,8.70
2019-03-20T07:12:00.326Z,10.00
2019-03-20T07:14:29.092Z,13.50
2019-03-20T07:16:57.903Z,15.60
2019-03-20T07:19:26.664Z,17.70
2019-03-20T07:21:55.268Z,17.50
2019-03-20T07:24:23.937Z,19.80
2019-03-20T07:26:52.666Z,19.50
2019-03-20T07:29:21.336Z,22.90
2019-03-20T07:31:49.999Z,22.70
2019-03-20T07:34:18.679Z,21.20
2019-03-20T07:36:47.385Z,22.00
2019-03-20T07:39:16.213Z,21.90
2019-03-20T07:41:44.942Z,24.30
2019-03-20T07:44:13.717Z,23.70
2019-03-20T07:46:42.497Z,24.40
2019-03-20T07:49:11.247Z,22.70
2019-03-20T07:51:40.008Z,22.10
2019-03-20T07:54:08.774Z,24.60
2019-03-20T07:56:37.471Z,24.10
2019-03-20T07:59:06.090Z,22.90
2019-03-20T08:01:34.848Z,23.00
2019-03-20T08:04:03.580Z,22.00
2019-03-20T08:06:32.311Z,20.00
2019-03-20T08:09:01.053Z,19.40
2019-03-20T08:11:29.776Z,18.40
2019-03-20T08:13:58.461Z,20.00
2019-03-20T08:16:27.288Z,19.90
2019-03-20T08:18:55.953Z,18.10
2019-03-20T08:21:24.554Z,18.60
2019-03-20T08:23:55.726Z,18.20
2019-03-20T08:26:24.428Z,18.70
2019-03-20T08:28:53.194Z,18.70
2019-03-20T08:31:21.898Z,18.50
2019-03-20T08:33:50.687Z,16.70
2019-03-20T08:36:19.329Z,15.90
2019-03-20T08:38:48.091Z,15.40
2019-03-20T08:41:16.780Z,14.10
2019-03-20T08:43:45.745Z,13.50
2019-03-20T08:46:14.596Z,13.20
2019-03-20T08:48:43.244Z,12.60
2019-03-20T08:51:12.004Z,12.30
2019-03-20T08:53:40.628Z,11.30
2019-03-20T08:56:09.460Z,11.40
2019-03-20T08:58:38.153Z,9.80
2019-03-20T09:01:07.035Z,7.00
2019-03-20T09:03:35.712Z,5.50
2019-03-20T09:06:04.650Z,5.70
2019-03-20T09:08:33.383Z,6.70
2019-03-20T09:11:02.082Z,6.60
2019-03-20T09:13:30.779Z,5.00
2019-03-20T09:15:59.841Z,5.00
2019-03-20T09:18:28.556Z,4.40
2019-03-20T09:20:57.301Z,3.90
2019-03-20T09:23:26.003Z,2.50
2019-03-20T09:25:54.658Z,1.40
2019-03-20T09:28:23.316Z,1.30
2019-03-20T09:30:52.243Z,1.90
2019-03-20T09:33:20.982Z,1.50
2019-03-20T09:35:49.728Z,1.20
2019-03-20T09:38:18.431Z,1.00
2019-03-20T09:40:47.066Z,1.00
2019-03-20T09:43:15.700Z,1.00
2019-03-20T09:45:44.446Z,1.00
2019-03-20T09:48:13.071Z,1.00
2019-03-20T09:50:41.679Z,1.00
2019-03-20T09:53:10.310Z,1.00
2019-03-20T09:55:38.991Z,1.00
2019-03-20T09:58:11.922Z,1.00
2019-03-20T10:00:38.359Z,1.00
2019-03-20T10:03:07.082Z,1.00
2019-03-20T10:05:35.777Z,1.00
2019-03-20T10:08:04.557Z,1.00
2019-03-20T10:10:33.260Z,1.00
2019-03-20T10:13:02.090Z,1.00
2019-03-20T10:15:31.801Z,1.40
2019-03-20T10:18:00.564Z,1.80
2019-03-20T10:20:29.275Z,1.50
2019-03-20T10:22:57.873Z,1.00
2019-03-20T10:25:26.639Z,1.70
2019-03-20T10:27:55.369Z,2.00
2019-03-20T10:30:24.582Z,3.00
2019-03-20T10:32:53.341Z,2.60
2019-03-20T10:35:22.203Z,3.30
2019-03-20T10:37:50.936Z,3.10
2019-03-20T10:40:20.918Z,3.60
2019-03-20T10:42:49.653Z,3.50
2019-03-20T10:45:19.058Z,4.90
2019-03-20T10:47:47.907Z,4.60
2019-03-20T10:50:17.932Z,5.20
2019-03-20T10:52:46.781Z,4.80
2019-03-20T10:55:15.603Z,5.20
2019-03-20T10:57:44.681Z,5.20
2019-03-20T11:00:16.441Z,5.10
2019-03-20T11:02:45.523Z,5.30
2019-03-20T11:05:14.723Z,5.20
2019-03-20T11:07:43.414Z,5.40
2019-03-20T11:10:14.953Z,5.50
2019-03-20T11:12:43.657Z,6.00
2019-03-20T11:15:14.703Z,6.00
2019-03-20T11:17:43.466Z,5.90
2019-03-20T11:20:14.761Z,6.20
2019-03-20T11:22:43.746Z,6.70
2019-03-20T11:25:15.356Z,7.30
2019-03-20T11:27:44.132Z,6.50
2019-03-20T11:30:17.825Z,7.10
2019-03-20T11:32:46.677Z,7.00
2019-03-20T11:35:15.591Z,6.30
2019-03-20T11:37:44.315Z,7.00
2019-03-20T11:40:15.853Z,7.20
2019-03-20T11:42:44.728Z,6.80
2019-03-20T11:45:13.996Z,6.80
2019-03-20T11:47:42.739Z,6.70
2019-03-20T11:50:14.327Z,6.70
2019-03-20T11:52:44.248Z,6.60
2019-03-20T11:55:13.447Z,6.20
2019-03-20T11:57:42.097Z,6.90
2019-03-20T12:00:13.636Z,7.10
2019-03-20T12:02:42.402Z,7.10
2019-03-20T12:05:11.842Z,7.60
2019-03-20T12:07:40.478Z,7.30
2019-03-20T12:10:12.012Z,7.30
2019-03-20T12:12:40.862Z,7.00
2019-03-20T12:15:11.175Z,6.60
2019-03-20T12:17:39.862Z,6.60
2019-03-20T12:20:11.387Z,6.90
2019-03-20T12:22:40.058Z,7.20
2019-03-20T12:25:12.111Z,8.00
2019-03-20T12:27:40.807Z,8.30
2019-03-20T12:30:12.716Z,8.90
2019-03-20T12:32:41.446Z,8.50
2019-03-20T12:35:13.096Z,8.20
2019-03-20T12:37:41.795Z,8.40
2019-03-20T12:40:13.350Z,8.50
2019-03-20T12:42:42.078Z,8.90
2019-03-20T12:45:13.653Z,8.50
2019-03-20T12:47:42.353Z,8.90
2019-03-20T12:50:12.906Z,9.00
2019-03-20T12:52:41.644Z,8.50
2019-03-20T12:55:13.022Z,8.60
2019-03-20T12:57:41.782Z,8.40
2019-03-20T13:00:13.375Z,8.70
2019-03-20T13:02:42.276Z,8.50
2019-03-20T13:05:13.615Z,8.30
2019-03-20T13:07:42.271Z,8.20
2019-03-20T13:10:13.604Z,8.60
2019-03-20T13:12:42.282Z,8.70
2019-03-20T13:15:14.040Z,9.00
2019-03-20T13:17:42.842Z,8.80
2019-03-20T13:20:12.134Z,9.10
2019-03-20T13:22:41.051Z,9.00
2019-03-20T13:25:12.442Z,9.30
2019-03-20T13:27:41.153Z,8.80
2019-03-20T13:30:20.058Z,8.90
2019-03-20T13:32:43.360Z,8.50
2019-03-20T13:35:12.051Z,8.60
2019-03-20T13:37:40.794Z,8.60
2019-03-20T13:40:14.624Z,8.70
2019-03-20T13:42:42.383Z,9.00
2019-03-20T13:45:13.991Z,8.00
2019-03-20T13:47:42.766Z,8.30
2019-03-20T13:50:13.666Z,8.40
2019-03-20T13:52:42.411Z,8.00
2019-03-20T13:55:13.284Z,8.50
2019-03-20T13:57:42.224Z,8.10
2019-03-20T14:00:13.840Z,8.30
2019-03-20T14:02:42.763Z,8.20
2019-03-20T14:05:11.552Z,8.60
2019-03-20T14:07:40.211Z,8.80
2019-03-20T14:10:11.734Z,8.80
2019-03-20T14:12:40.533Z,9.10
2019-03-20T14:15:11.472Z,9.10
2019-03-20T14:17:40.225Z,8.90
2019-03-20T14:20:12.031Z,9.00
2019-03-20T14:22:40.857Z,9.50
2019-03-20T14:25:11.641Z,9.20
2019-03-20T14:27:40.318Z,9.40
2019-03-20T14:30:11.988Z,9.00
2019-03-20T14:32:40.618Z,8.70
2019-03-20T14:35:09.668Z,8.90
2019-03-20T14:37:38.350Z,8.80
2019-03-20T14:40:10.101Z,8.00
2019-03-20T14:42:38.861Z,7.80
2019-03-20T14:45:10.303Z,8.30
2019-03-20T14:47:42.321Z,7.70
2019-03-20T14:50:12.217Z,8.00
2019-03-20T14:52:40.825Z,7.40
2019-03-20T14:55:11.538Z,7.90
2019-03-20T14:57:40.406Z,8.00
2019-03-20T15:00:12.052Z,8.40
2019-03-20T15:02:41.026Z,8.40
2019-03-20T15:05:10.491Z,8.50
2019-03-20T15:07:39.125Z,8.80
2019-03-20T15:10:10.645Z,8.20
2019-03-20T15:12:39.321Z,9.10
2019-03-20T15:15:10.928Z,9.00
2019-03-20T15:17:39.629Z,9.40
2019-03-20T15:20:08.444Z,9.40
2019-03-20T15:22:37.152Z,10.30
2019-03-20T15:25:08.684Z,9.90
2019-03-20T15:27:37.370Z,10.20
2019-03-20T15:30:09.081Z,10.50
2019-03-20T15:32:37.826Z,10.50
2019-03-20T15:35:08.150Z,10.60
2019-03-20T15:37:36.929Z,11.00
2019-03-20T15:40:08.460Z,10.80
2019-03-20T15:42:37.126Z,11.00
2019-03-20T15:45:08.692Z,10.70
2019-03-20T15:47:40.077Z,11.70
2019-03-20T15:50:12.629Z,11.60
2019-03-20T15:52:41.393Z,11.50
2019-03-20T15:55:12.894Z,11.60
2019-03-20T15:57:41.680Z,11.60
2019-03-20T16:00:13.324Z,11.50
2019-03-20T16:02:42.023Z,11.60
2019-03-20T16:05:10.774Z,11.50
2019-03-20T16:07:39.514Z,12.00
2019-03-20T16:10:11.423Z,12.60
2019-03-20T16:12:40.236Z,13.10
2019-03-20T16:15:12.134Z,12.70
2019-03-20T16:17:40.814Z,13.80
2019-03-20T16:20:11.520Z,14.00
2019-03-20T16:22:40.283Z,14.10
2019-03-20T16:25:11.726Z,14.10
2019-03-20T16:27:40.449Z,14.20
2019-03-20T16:30:12.405Z,14.50
2019-03-20T16:32:41.183Z,15.00
2019-03-20T16:35:10.500Z,15.10
2019-03-20T16:37:39.250Z,15.60
2019-03-20T16:40:11.415Z,16.00
2019-03-20T16:42:40.171Z,16.60
2019-03-20T16:45:11.727Z,16.90
2019-03-20T16:47:40.525Z,17.70
2019-03-20T16:50:12.309Z,18.10
2019-03-20T16:52:41.043Z,18.30
2019-03-20T16:55:12.074Z,18.90
2019-03-20T16:57:40.928Z,19.00
2019-03-20T17:00:12.654Z,19.50
2019-03-20T17:02:41.368Z,19.70
2019-03-20T17:05:10.552Z,20.20
2019-03-20T17:07:39.284Z,20.70
2019-03-20T17:10:10.882Z,21.40
2019-03-20T17:12:39.683Z,21.80
2019-03-20T17:15:11.249Z,22.30
2019-03-20T17:17:39.988Z,22.60
2019-03-20T17:20:09.086Z,23.00
2019-03-20T17:22:41.881Z,23.40
2019-03-20T17:25:10.589Z,23.30
2019-03-20T17:27:39.298Z,23.70
2019-03-20T17:30:11.092Z,23.90
2019-03-20T17:32:39.886Z,24.40
2019-03-20T17:35:10.553Z,24.80
2019-03-20T17:37:39.433Z,24.50
2019-03-20T17:40:11.018Z,24.90
2019-03-20T17:42:39.831Z,25.10
2019-03-20T17:45:11.351Z,26.10
2019-03-20T17:47:40.063Z,26.10
2019-03-20T17:50:11.838Z,26.80
2019-03-20T17:52:40.649Z,27.10
2019-03-20T17:55:09.539Z,27.20
2019-03-20T17:57:38.375Z,27.40
2019-03-20T18:00:10.075Z,27.80
2019-03-20T18:02:38.802Z,28.20
2019-03-20T18:05:08.961Z,28.80
2019-03-20T18:07:37.752Z,29.40
2019-03-20T18:10:07.101Z,29.80
2019-03-20T18:12:35.915Z,30.70
2019-03-20T18:15:07.735Z,32.30
2019-03-20T18:17:36.645Z,33.10
2019-03-20T18:20:08.253Z,34.00
2019-03-20T18:22:38.437Z,36.00
2019-03-20T18:25:10.306Z,36.20
2019-03-20T18:27:39.152Z,36.60
2019-03-20T18:30:10.819Z,37.40
2019-03-20T18:32:39.656Z,37.70
2019-03-20T18:35:09.011Z,37.30
2019-03-20T18:37:37.913Z,36.80
2019-03-20T18:40:09.510Z,36.80
2019-03-20T18:42:38.292Z,36.50
2019-03-20T18:45:09.846Z,36.60
2019-03-20T18:47:38.655Z,36.50
2019-03-20T18:50:09.133Z,37.10
2019-03-20T18:52:38.031Z,37.50
2019-03-20T18:55:09.583Z,37.70
2019-03-20T18:57:38.412Z,37.60
2019-03-20T19:00:09.953Z,38.00
2019-03-20T19:02:38.750Z,38.00
2019-03-20T19:05:10.320Z,38.00
2019-03-20T19:07:39.328Z,39.40
2019-03-20T19:10:10.538Z,38.90
2019-03-20T19:12:39.355Z,39.20
2019-03-20T19:15:10.590Z,38.70
2019-03-20T19:17:39.423Z,38.90
2019-03-20T19:20:10.478Z,39.50
2019-03-20T19:22:39.214Z,39.10
2019-03-20T19:25:11.121Z,39.20
2019-03-20T19:27:39.761Z,38.90
2019-03-20T19:30:11.555Z,39.10
2019-03-20T19:32:40.354Z,38.60
2019-03-20T19:35:11.045Z,39.50
2019-03-20T19:37:39.779Z,39.10
2019-03-20T19:40:11.314Z,39.90
2019-03-20T19:42:40.167Z,40.00
2019-03-20T19:45:13.738Z,40.50
2019-03-20T19:47:42.610Z,40.10
2019-03-20T19:50:13.657Z,39.90
2019-03-20T19:52:42.695Z,39.60
2019-03-20T19:55:13.640Z,39.70
2019-03-20T19:57:42.632Z,39.70
2019-03-20T20:00:13.969Z,39.50
2019-03-20T20:02:42.790Z,39.90
2019-03-20T20:05:15.913Z,39.70
2019-03-20T20:07:43.351Z,40.10
2019-03-20T20:10:13.912Z,40.70
2019-03-20T20:12:42.686Z,41.50
2019-03-20T20:15:14.267Z,40.80
2019-03-20T20:17:43.038Z,40.80
2019-03-20T20:20:14.647Z,41.10
2019-03-20T20:22:43.364Z,41.00
2019-03-20T20:25:12.602Z,41.00
2019-03-20T20:27:41.434Z,41.70
2019-03-20T20:30:13.384Z,41.40
2019-03-20T20:32:42.138Z,40.70
2019-03-20T20:35:12.474Z,41.10
2019-03-20T20:37:41.284Z,42.70
2019-03-20T20:40:12.589Z,43.70
2019-03-20T20:42:43.201Z,44.10
2019-03-20T20:45:13.431Z,44.50
2019-03-20T20:47:42.169Z,45.00
2019-03-20T20:50:13.513Z,46.10
2019-03-20T20:52:45.192Z,46.40
2019-03-20T20:55:15.326Z,46.70
2019-03-20T20:57:44.072Z,48.40
2019-03-20T21:00:15.590Z,50.50
2019-03-20T21:02:44.374Z,51.90
2019-03-20T21:05:13.093Z,52.40
2019-03-20T21:07:41.960Z,53.70
2019-03-20T21:10:13.468Z,54.10
2019-03-20T21:12:42.878Z,54.90
2019-03-20T21:15:15.546Z,56.00
2019-03-20T21:17:47.133Z,56.20
2019-03-20T21:20:15.867Z,57.50
2019-03-20T21:22:47.417Z,57.40
2019-03-20T21:25:16.128Z,57.40
2019-03-20T21:27:47.647Z,57.80
2019-03-20T21:30:19.497Z,58.80
2019-03-20T21:32:51.091Z,59.50
2019-03-20T21:35:22.690Z,60.90
2019-03-20T21:37:54.217Z,61.40
2019-03-20T21:40:22.967Z,60.60
2019-03-20T21:42:54.512Z,60.20
2019-03-20T21:45:24.472Z,60.90
2019-03-20T21:47:53.164Z,61.70
2019-03-20T21:50:24.675Z,64.80
2019-03-20T21:52:53.370Z,64.90
2019-03-20T21:55:21.638Z,64.80
2019-03-20T21:57:53.139Z,64.40
2019-03-20T22:00:24.625Z,64.10
2019-03-20T22:02:53.331Z,64.80
2019-03-20T22:05:24.208Z,64.80
2019-03-20T22:07:52.865Z,64.70
2019-03-20T22:10:23.965Z,64.80
2019-03-20T22:12:53.304Z,64.70
2019-03-20T22:15:24.826Z,63.50
2019-03-20T22:17:56.371Z,63.30
2019-03-20T22:20:26.371Z,63.10
2019-03-20T22:22:57.913Z,63.20
2019-03-20T22:25:29.457Z,61.90
2019-03-20T22:28:01.013Z,61.40
2019-03-20T22:30:29.808Z,61.90
2019-03-20T22:33:01.326Z,62.00
2019-03-20T22:35:32.829Z,60.70
2019-03-20T22:38:03.285Z,60.20
2019-03-20T22:40:34.759Z,60.60
2019-03-20T22:43:06.341Z,60.70
2019-03-20T22:45:37.832Z,60.20
2019-03-20T22:48:09.476Z,60.10
2019-03-20T22:50:41.071Z,59.80
2019-03-20T22:53:12.560Z,59.70
2019-03-20T22:55:44.103Z,60.30
2019-03-20T22:58:12.400Z,59.90
2019-03-20T23:00:41.151Z,59.20
2019-03-20T23:03:12.676Z,58.50
2019-03-20T23:05:41.381Z,58.10
2019-03-20T23:08:14.237Z,58.00
2019-03-20T23:10:44.301Z,58.50
2019-03-20T23:13:18.796Z,58.40
2019-03-20T23:15:43.350Z,58.40
2019-03-20T23:18:12.171Z,58.50
2019-03-20T23:20:40.932Z,58.90
2019-03-20T23:23:09.618Z,59.70
2019-03-20T23:25:38.387Z,61.30
2019-03-20T23:28:07.085Z,63.10
2019-03-20T23:30:35.892Z,64.60
2019-03-20T23:33:04.667Z,64.60
2019-03-20T23:35:34.883Z,65.50
2019-03-20T23:38:03.777Z,67.50
2019-03-20T23:40:32.476Z,69.70
2019-03-20T23:43:04.019Z,71.40
2019-03-20T23:45:32.863Z,72.30
2019-03-20T23:48:04.395Z,72.70
2019-03-20T23:50:33.150Z,73.10
2019-03-20T23:53:02.084Z,73.50
2019-03-20T23:55:30.820Z,74.50
2019-03-20T23:57:59.858Z,75.50
